Terminal Aerodrome Forecast
Issued by NWS Wakefield, VA

Home | Current Version | Previous Version | Text Only | Print | Product List | Glossary On
Versions: 1 2 3 4 5 6 7 8 9 10 11 12 13 14 15 16 17 18 19 20 21 22 23 24 25 26
000
FTUS41 KAKQ 240532
TAFECG
TAF
KECG 240532Z 2406/2506 00000KT P6SM VCSH OVC003
     FM241000 02005KT P6SM OVC005
     FM241400 01005KT P6SM OVC006
     FM241800 08007KT P6SM OVC010
     FM250000 16008KT P6SM -SHRA OVC015=

USA.gov is the U.S. government's official web portal to all federal, state and local government web resources and services.